Last 24 Hours

Squaw-Belmont 8000'

Hourly Data | America/Los_Angeles
as of 8/12/20 2:21 PM PDT
Date & Time Temp (°F) RH (%) Dew Pt (°F) Wet Bulb (°F) Wind Dir (°) Wind Spd (mph) Wind Gust (mph) WindChill (°F) Latest Rain (In) Daily Min Temp (°F) Daily Max Temp (°F) Daily Rain (In)
8/12/20 - 1400 65.6 25 29.2 46.9 SSW | 210 8.5 19.6 66.3 0.00 53.2 68.8 0.00
8/12/20 - 1300 64.8 26 29.2 46.5 SSW | 206 10.3 21.5 64.4 0.00 53.2 66.2 0.00
8/12/20 - 1200 63.9 22 24.6 44.8 SSW | 206 9.8 25.3 62.9 0.00 53.2 64.4 0.00
8/12/20 - 1100 62.8 26 27.5 45.1 SSW | 206 8.4 22.3 61.2 0.00 53.2 63.8 0.00
8/12/20 - 1000 60.2 28 26.7 43.7 SSW | 207 5.6 15.1 60.1 0.00 53.2 61.6 0.00
8/12/20 - 0900 58.8 29 26.9 43.2 SSW | 200 5.9 14.3 57.9 0.00 53.2 58.9 0.00
8/12/20 - 0800 57.3 26 23.1 41.4 SW | 216 6.7 14.4 56.5 0.00 53.2 57.5 0.00
8/12/20 - 0700 55.4 28 23.2 40.5 SW | 220 6.8 12.2 54.5 0.00 53.2 55.8 0.00
8/12/20 - 0600 54.0 32 24.4 40.2 SW | 222 8.8 14.9 54.2 0.00 53.7 55.8 0.00
8/12/20 - 0500 54.4 32 25.2 40.7 SW | 216 10.1 16.0 54.5 0.00 54.0 55.8 0.00
8/12/20 - 0400 54.6 33 26.0 41.0 SW | 215 10.0 16.3 54.7 0.00 54.2 55.8 0.00
8/12/20 - 0300 55.2 33 26.3 41.4 SW | 215 9.8 16.0 55.3 0.00 54.4 55.8 0.00
8/12/20 - 0200 54.8 38 29.9 42.3 SW | 215 8.3 13.7 55.0 0.00 54.4 55.8 0.00
8/12/20 - 0100 55.0 39 30.6 42.7 SSW | 212 6.6 12.0 55.2 0.00 54.4 55.6 0.00
8/12/20 - 0000 55.3 39 30.7 43.0 SSW | 212 5.8 11.3 55.9 0.00 55.3 70.5 0.00
8/11/20 - 2300 55.7 45 34.4 44.5 SW | 222 6.5 12.1 55.8 0.00 55.3 70.5 0.00
8/11/20 - 2200 56.2 43 34.2 44.6 SW | 219 5.8 11.5 56.4 0.00 55.9 70.5 0.00
8/11/20 - 2100 56.0 53 39.4 46.8 SW | 231 7.0 13.4 57.2 0.00 56.0 70.5 0.00
8/11/20 - 2000 58.4 45 37.3 46.8 SW | 222 6.9 12.8 59.9 0.00 58.2 70.5 0.00
8/11/20 - 1900 61.6 36 34.5 47.0 SW | 231 9.2 18.0 63.6 0.00 58.2 70.5 0.00
8/11/20 - 1800 65.0 34 35.6 48.9 WSW | 237 10.1 17.7 66.8 0.00 58.2 70.5 0.00
8/11/20 - 1700 67.1 31 35.5 49.6 WSW | 239 9.8 19.8 67.6 0.00 58.2 70.5 0.00
8/11/20 - 1600 68.5 29 35.4 50.2 SW | 234 9.4 20.1 68.9 0.00 58.2 70.5 0.00
8/11/20 - 1500 69.3 28 35.1 50.4 SW | 225 8.9 19.4 68.9 0.00 58.2 70.5 0.00
8/11/20 - 1400 70.0 28 35.3 50.7 WSW | 237 9.9 19.6 68.5 0.00 58.2 70.5 0.00
Max 70.0 53 39.4 50.7 - 10.3 25.3 68.9 0.00 58.2 70.5 0.00
Avg 60.0 33 30.4 44.9 - 8.2 16.4 60.1 0.00 - - -
Min 54.0 22 23.1 40.2 - 5.6 11.3 54.2 0.00 53.2 55.6 0.00
Total - - - - - - - - 0.00 - - -